sensor_id;sensor_type;location;lat;lon;timestamp;temperature;humidity
21559;DHT22;10940;48.890;8.240;2024-02-26T00:01:23;9.70;99.90
21559;DHT22;10940;48.890;8.240;2024-02-26T00:03:49;9.90;99.90
21559;DHT22;10940;48.890;8.240;2024-02-26T00:06:15;10.10;99.90
21559;DHT22;10940;48.890;8.240;2024-02-26T00:08:41;10.30;99.90
21559;DHT22;10940;48.890;8.240;2024-02-26T00:11:06;10.50;99.90
21559;DHT22;10940;48.890;8.240;2024-02-26T00:13:32;10.60;99.90
21559;DHT22;10940;48.890;8.240;2024-02-26T00:15:57;10.50;99.90
21559;DHT22;10940;48.890;8.240;2024-02-26T00:18:23;10.50;99.90
21559;DHT22;10940;48.890;8.240;2024-02-26T00:20:48;10.30;99.90
21559;DHT22;10940;48.890;8.240;2024-02-26T00:23:17;10.30;99.90
21559;DHT22;10940;48.890;8.240;2024-02-26T00:25:42;10.30;99.90
21559;DHT22;10940;48.890;8.240;2024-02-26T00:28:09;10.40;99.90
21559;DHT22;10940;48.890;8.240;2024-02-26T00:30:35;10.30;99.90
21559;DHT22;10940;48.890;8.240;2024-02-26T00:33:01;10.30;99.90
21559;DHT22;10940;48.890;8.240;2024-02-26T00:35:26;10.30;99.90
21559;DHT22;10940;48.890;8.240;2024-02-26T00:37:52;10.30;99.90
21559;DHT22;10940;48.890;8.240;2024-02-26T00:40:18;10.30;99.90
21559;DHT22;10940;48.890;8.240;2024-02-26T00:42:43;10.30;99.90
21559;DHT22;10940;48.890;8.240;2024-02-26T00:45:12;10.20;99.90
21559;DHT22;10940;48.890;8.240;2024-02-26T00:47:38;10.20;99.90
21559;DHT22;10940;48.890;8.240;2024-02-26T00:50:07;10.20;99.90
21559;DHT22;10940;48.890;8.240;2024-02-26T00:52:34;10.20;99.90
21559;DHT22;10940;48.890;8.240;2024-02-26T00:55:00;10.20;99.90
21559;DHT22;10940;48.890;8.240;2024-02-26T00:57:25;10.10;99.90
21559;DHT22;10940;48.890;8.240;2024-02-26T00:59:51;10.00;99.90
21559;DHT22;10940;48.890;8.240;2024-02-26T01:02:17;9.90;99.90
21559;DHT22;10940;48.890;8.240;2024-02-26T01:04:42;9.70;99.90
21559;DHT22;10940;48.890;8.240;2024-02-26T01:07:09;9.60;99.90
21559;DHT22;10940;48.890;8.240;2024-02-26T01:09:34;9.50;99.90
21559;DHT22;10940;48.890;8.240;2024-02-26T01:12:00;9.40;99.90
21559;DHT22;10940;48.890;8.240;2024-02-26T01:14:25;9.20;99.90
21559;DHT22;10940;48.890;8.240;2024-02-26T01:16:51;9.10;99.90
21559;DHT22;10940;48.890;8.240;2024-02-26T01:19:17;9.00;99.90
21559;DHT22;10940;48.890;8.240;2024-02-26T01:21:42;9.00;99.90
21559;DHT22;10940;48.890;8.240;2024-02-26T01:24:08;8.90;99.90
21559;DHT22;10940;48.890;8.240;2024-02-26T01:26:33;8.90;99.90
21559;DHT22;10940;48.890;8.240;2024-02-26T01:28:59;8.80;99.90
21559;DHT22;10940;48.890;8.240;2024-02-26T01:31:24;8.80;99.90
21559;DHT22;10940;48.890;8.240;2024-02-26T01:33:50;8.80;99.90
21559;DHT22;10940;48.890;8.240;2024-02-26T01:36:16;8.90;99.90
21559;DHT22;10940;48.890;8.240;2024-02-26T01:38:42;8.90;99.90
21559;DHT22;10940;48.890;8.240;2024-02-26T01:41:07;8.90;99.90
21559;DHT22;10940;48.890;8.240;2024-02-26T01:43:33;8.90;99.90
21559;DHT22;10940;48.890;8.240;2024-02-26T01:45:58;8.90;99.90
21559;DHT22;10940;48.890;8.240;2024-02-26T01:48:24;8.80;99.90
21559;DHT22;10940;48.890;8.240;2024-02-26T01:50:51;8.70;99.90
21559;DHT22;10940;48.890;8.240;2024-02-26T01:53:17;8.70;99.90
21559;DHT22;10940;48.890;8.240;2024-02-26T01:55:43;8.70;99.90
21559;DHT22;10940;48.890;8.240;2024-02-26T01:58:09;8.60;99.90
21559;DHT22;10940;48.890;8.240;2024-02-26T02:00:35;8.50;99.90
21559;DHT22;10940;48.890;8.240;2024-02-26T02:03:02;8.40;99.90
21559;DHT22;10940;48.890;8.240;2024-02-26T02:05:28;8.30;99.90
21559;DHT22;10940;48.890;8.240;2024-02-26T02:07:54;8.20;99.90
21559;DHT22;10940;48.890;8.240;2024-02-26T02:10:20;8.20;99.90
21559;DHT22;10940;48.890;8.240;2024-02-26T02:12:51;8.00;99.90
21559;DHT22;10940;48.890;8.240;2024-02-26T02:15:17;7.80;99.90
21559;DHT22;10940;48.890;8.240;2024-02-26T02:17:43;7.70;99.90
21559;DHT22;10940;48.890;8.240;2024-02-26T02:20:10;7.60;99.90
21559;DHT22;10940;48.890;8.240;2024-02-26T02:22:40;7.50;99.90
21559;DHT22;10940;48.890;8.240;2024-02-26T02:25:06;7.50;99.90
21559;DHT22;10940;48.890;8.240;2024-02-26T02:27:31;7.40;99.90
21559;DHT22;10940;48.890;8.240;2024-02-26T02:29:57;7.40;99.90
21559;DHT22;10940;48.890;8.240;2024-02-26T02:32:24;7.30;99.90
21559;DHT22;10940;48.890;8.240;2024-02-26T02:34:50;7.30;99.90
21559;DHT22;10940;48.890;8.240;2024-02-26T02:37:17;7.20;99.90
21559;DHT22;10940;48.890;8.240;2024-02-26T02:39:43;7.10;99.90
21559;DHT22;10940;48.890;8.240;2024-02-26T02:42:09;7.10;99.90
21559;DHT22;10940;48.890;8.240;2024-02-26T02:44:35;7.00;99.90
21559;DHT22;10940;48.890;8.240;2024-02-26T02:47:00;7.10;99.90
21559;DHT22;10940;48.890;8.240;2024-02-26T02:49:26;7.00;99.90
21559;DHT22;10940;48.890;8.240;2024-02-26T02:51:54;7.00;99.90
21559;DHT22;10940;48.890;8.240;2024-02-26T02:54:22;7.00;99.90
21559;DHT22;10940;48.890;8.240;2024-02-26T02:56:47;7.00;99.90
21559;DHT22;10940;48.890;8.240;2024-02-26T02:59:13;7.00;99.90
21559;DHT22;10940;48.890;8.240;2024-02-26T03:01:38;7.00;99.90
21559;DHT22;10940;48.890;8.240;2024-02-26T03:04:04;7.10;99.90
21559;DHT22;10940;48.890;8.240;2024-02-26T03:06:30;7.10;99.90
21559;DHT22;10940;48.890;8.240;2024-02-26T03:08:55;7.00;99.90
21559;DHT22;10940;48.890;8.240;2024-02-26T03:11:21;7.00;99.90
21559;DHT22;10940;48.890;8.240;2024-02-26T03:13:46;7.00;99.90
21559;DHT22;10940;48.890;8.240;2024-02-26T03:16:12;7.00;99.90
21559;DHT22;10940;48.890;8.240;2024-02-26T03:18:40;7.00;99.90
21559;DHT22;10940;48.890;8.240;2024-02-26T03:21:06;7.00;99.90
21559;DHT22;10940;48.890;8.240;2024-02-26T03:23:32;7.00;99.90
21559;DHT22;10940;48.890;8.240;2024-02-26T03:26:02;7.00;99.90
21559;DHT22;10940;48.890;8.240;2024-02-26T03:28:28;7.00;99.90
21559;DHT22;10940;48.890;8.240;2024-02-26T03:30:54;7.10;99.90
21559;DHT22;10940;48.890;8.240;2024-02-26T03:33:20;7.00;99.90
21559;DHT22;10940;48.890;8.240;2024-02-26T03:35:45;7.00;99.90
21559;DHT22;10940;48.890;8.240;2024-02-26T03:38:11;7.00;99.90
21559;DHT22;10940;48.890;8.240;2024-02-26T03:40:36;6.90;99.90
21559;DHT22;10940;48.890;8.240;2024-02-26T03:43:02;6.90;99.90
21559;DHT22;10940;48.890;8.240;2024-02-26T03:45:30;6.90;99.90
21559;DHT22;10940;48.890;8.240;2024-02-26T03:47:55;6.80;99.90
21559;DHT22;10940;48.890;8.240;2024-02-26T03:50:21;6.80;99.90
21559;DHT22;10940;48.890;8.240;2024-02-26T03:52:46;6.90;99.90
21559;DHT22;10940;48.890;8.240;2024-02-26T03:55:12;6.90;99.90
21559;DHT22;10940;48.890;8.240;2024-02-26T03:57:37;6.90;99.90
21559;DHT22;10940;48.890;8.240;2024-02-26T04:00:03;6.90;99.90
21559;DHT22;10940;48.890;8.240;2024-02-26T04:02:29;6.90;99.90
21559;DHT22;10940;48.890;8.240;2024-02-26T04:04:54;6.90;99.90
21559;DHT22;10940;48.890;8.240;2024-02-26T04:07:20;6.90;99.90
21559;DHT22;10940;48.890;8.240;2024-02-26T04:09:46;6.80;99.90
21559;DHT22;10940;48.890;8.240;2024-02-26T04:12:12;6.90;99.90
21559;DHT22;10940;48.890;8.240;2024-02-26T04:14:37;6.90;99.90
21559;DHT22;10940;48.890;8.240;2024-02-26T04:17:03;6.80;99.90
21559;DHT22;10940;48.890;8.240;2024-02-26T04:19:29;6.90;99.90
21559;DHT22;10940;48.890;8.240;2024-02-26T04:21:54;6.90;99.90
21559;DHT22;10940;48.890;8.240;2024-02-26T04:24:20;6.80;99.90
21559;DHT22;10940;48.890;8.240;2024-02-26T04:26:46;6.80;99.90
21559;DHT22;10940;48.890;8.240;2024-02-26T04:29:11;6.80;99.90
21559;DHT22;10940;48.890;8.240;2024-02-26T04:31:37;6.80;99.90
21559;DHT22;10940;48.890;8.240;2024-02-26T04:34:03;6.80;99.90
21559;DHT22;10940;48.890;8.240;2024-02-26T04:36:29;6.80;99.90
21559;DHT22;10940;48.890;8.240;2024-02-26T04:38:54;6.80;99.90
21559;DHT22;10940;48.890;8.240;2024-02-26T04:41:21;6.80;99.90
21559;DHT22;10940;48.890;8.240;2024-02-26T04:43:47;6.80;99.90
21559;DHT22;10940;48.890;8.240;2024-02-26T04:46:12;6.80;99.90
21559;DHT22;10940;48.890;8.240;2024-02-26T04:48:38;6.90;99.90
21559;DHT22;10940;48.890;8.240;2024-02-26T04:51:04;6.80;99.90
21559;DHT22;10940;48.890;8.240;2024-02-26T04:53:30;6.80;99.90
21559;DHT22;10940;48.890;8.240;2024-02-26T04:55:56;6.80;99.90
21559;DHT22;10940;48.890;8.240;2024-02-26T04:58:21;6.80;99.90
21559;DHT22;10940;48.890;8.240;2024-02-26T05:00:47;6.90;99.90
21559;DHT22;10940;48.890;8.240;2024-02-26T05:03:12;6.90;99.90
21559;DHT22;10940;48.890;8.240;2024-02-26T05:05:44;7.00;99.90
21559;DHT22;10940;48.890;8.240;2024-02-26T05:08:10;7.10;99.90
21559;DHT22;10940;48.890;8.240;2024-02-26T05:10:36;7.10;99.90
21559;DHT22;10940;48.890;8.240;2024-02-26T05:13:05;7.20;99.90
21559;DHT22;10940;48.890;8.240;2024-02-26T05:15:30;7.20;99.90
21559;DHT22;10940;48.890;8.240;2024-02-26T05:17:56;7.20;99.90
21559;DHT22;10940;48.890;8.240;2024-02-26T05:20:22;7.20;99.90
21559;DHT22;10940;48.890;8.240;2024-02-26T05:22:47;7.20;99.90
21559;DHT22;10940;48.890;8.240;2024-02-26T05:25:15;7.20;99.90
21559;DHT22;10940;48.890;8.240;2024-02-26T05:27:41;7.20;99.90
21559;DHT22;10940;48.890;8.240;2024-02-26T05:30:07;7.20;99.90
21559;DHT22;10940;48.890;8.240;2024-02-26T05:32:33;7.20;99.90
21559;DHT22;10940;48.890;8.240;2024-02-26T05:34:58;7.20;99.90
21559;DHT22;10940;48.890;8.240;2024-02-26T05:37:24;7.20;99.90
21559;DHT22;10940;48.890;8.240;2024-02-26T05:39:50;7.20;99.90
21559;DHT22;10940;48.890;8.240;2024-02-26T05:42:15;7.10;99.90
21559;DHT22;10940;48.890;8.240;2024-02-26T05:44:41;7.20;99.90
21559;DHT22;10940;48.890;8.240;2024-02-26T05:47:06;7.20;99.90
21559;DHT22;10940;48.890;8.240;2024-02-26T05:49:32;7.20;99.90
21559;DHT22;10940;48.890;8.240;2024-02-26T05:51:58;7.20;99.90
21559;DHT22;10940;48.890;8.240;2024-02-26T05:54:24;7.20;99.90
21559;DHT22;10940;48.890;8.240;2024-02-26T05:56:50;7.30;99.90
21559;DHT22;10940;48.890;8.240;2024-02-26T05:59:15;7.30;99.90
21559;DHT22;10940;48.890;8.240;2024-02-26T06:01:41;7.30;99.90
21559;DHT22;10940;48.890;8.240;2024-02-26T06:04:07;7.30;99.90
21559;DHT22;10940;48.890;8.240;2024-02-26T06:06:33;7.30;99.90
21559;DHT22;10940;48.890;8.240;2024-02-26T06:08:58;7.30;99.90
21559;DHT22;10940;48.890;8.240;2024-02-26T06:11:24;7.30;99.90
21559;DHT22;10940;48.890;8.240;2024-02-26T06:13:49;7.30;99.90
21559;DHT22;10940;48.890;8.240;2024-02-26T06:16:15;7.30;99.90
21559;DHT22;10940;48.890;8.240;2024-02-26T06:18:41;7.20;99.90
21559;DHT22;10940;48.890;8.240;2024-02-26T06:21:10;7.20;99.90
21559;DHT22;10940;48.890;8.240;2024-02-26T06:23:37;7.20;99.90
21559;DHT22;10940;48.890;8.240;2024-02-26T06:26:03;7.20;99.90
21559;DHT22;10940;48.890;8.240;2024-02-26T06:28:28;7.10;99.90
21559;DHT22;10940;48.890;8.240;2024-02-26T06:30:56;7.10;99.90
21559;DHT22;10940;48.890;8.240;2024-02-26T06:33:21;7.10;99.90
21559;DHT22;10940;48.890;8.240;2024-02-26T06:35:47;7.10;99.90
21559;DHT22;10940;48.890;8.240;2024-02-26T06:38:12;7.10;99.90
21559;DHT22;10940;48.890;8.240;2024-02-26T06:40:39;7.10;99.90
21559;DHT22;10940;48.890;8.240;2024-02-26T06:43:05;7.00;99.90
21559;DHT22;10940;48.890;8.240;2024-02-26T06:45:31;7.10;99.90
21559;DHT22;10940;48.890;8.240;2024-02-26T06:47:57;7.10;99.90
21559;DHT22;10940;48.890;8.240;2024-02-26T06:50:22;7.10;99.90
21559;DHT22;10940;48.890;8.240;2024-02-26T06:52:48;7.10;99.90
21559;DHT22;10940;48.890;8.240;2024-02-26T06:55:14;7.00;99.90
21559;DHT22;10940;48.890;8.240;2024-02-26T06:57:39;7.10;99.90
21559;DHT22;10940;48.890;8.240;2024-02-26T07:00:05;7.10;99.90
21559;DHT22;10940;48.890;8.240;2024-02-26T07:02:31;7.10;99.90
21559;DHT22;10940;48.890;8.240;2024-02-26T07:04:57;7.10;99.90
21559;DHT22;10940;48.890;8.240;2024-02-26T07:07:24;7.10;99.90
21559;DHT22;10940;48.890;8.240;2024-02-26T07:09:49;7.10;99.90
21559;DHT22;10940;48.890;8.240;2024-02-26T07:12:15;7.10;99.90
21559;DHT22;10940;48.890;8.240;2024-02-26T07:14:46;7.10;99.90
21559;DHT22;10940;48.890;8.240;2024-02-26T07:17:12;7.20;99.90
21559;DHT22;10940;48.890;8.240;2024-02-26T07:19:38;7.20;99.90
21559;DHT22;10940;48.890;8.240;2024-02-26T07:22:03;7.20;99.90
21559;DHT22;10940;48.890;8.240;2024-02-26T07:24:29;7.20;99.90
21559;DHT22;10940;48.890;8.240;2024-02-26T07:26:55;7.30;99.90
21559;DHT22;10940;48.890;8.240;2024-02-26T07:29:21;7.30;99.90
21559;DHT22;10940;48.890;8.240;2024-02-26T07:31:47;7.30;99.90
21559;DHT22;10940;48.890;8.240;2024-02-26T07:34:13;7.40;99.90
21559;DHT22;10940;48.890;8.240;2024-02-26T07:36:39;7.40;99.90
21559;DHT22;10940;48.890;8.240;2024-02-26T07:39:05;7.40;99.90
21559;DHT22;10940;48.890;8.240;2024-02-26T07:41:31;7.40;99.90
21559;DHT22;10940;48.890;8.240;2024-02-26T07:43:57;7.40;99.90
21559;DHT22;10940;48.890;8.240;2024-02-26T07:46:23;7.50;99.90
21559;DHT22;10940;48.890;8.240;2024-02-26T07:48:48;7.50;99.90
21559;DHT22;10940;48.890;8.240;2024-02-26T07:51:14;7.50;99.90
21559;DHT22;10940;48.890;8.240;2024-02-26T07:53:40;7.50;99.90
21559;DHT22;10940;48.890;8.240;2024-02-26T07:56:06;7.50;99.90
21559;DHT22;10940;48.890;8.240;2024-02-26T07:58:32;7.50;99.90
21559;DHT22;10940;48.890;8.240;2024-02-26T08:00:58;7.50;99.90
21559;DHT22;10940;48.890;8.240;2024-02-26T08:03:24;7.50;99.90
21559;DHT22;10940;48.890;8.240;2024-02-26T08:05:51;7.60;99.90
21559;DHT22;10940;48.890;8.240;2024-02-26T08:08:16;7.60;99.90
21559;DHT22;10940;48.890;8.240;2024-02-26T08:10:42;7.60;99.90
21559;DHT22;10940;48.890;8.240;2024-02-26T08:13:08;7.50;99.90
21559;DHT22;10940;48.890;8.240;2024-02-26T08:15:34;7.60;99.90
21559;DHT22;10940;48.890;8.240;2024-02-26T08:18:03;7.70;99.90
21559;DHT22;10940;48.890;8.240;2024-02-26T08:20:30;7.70;99.90
21559;DHT22;10940;48.890;8.240;2024-02-26T08:22:56;7.80;99.90
21559;DHT22;10940;48.890;8.240;2024-02-26T08:25:22;7.90;99.90
21559;DHT22;10940;48.890;8.240;2024-02-26T08:27:48;8.00;99.90
21559;DHT22;10940;48.890;8.240;2024-02-26T08:30:14;8.10;99.90
21559;DHT22;10940;48.890;8.240;2024-02-26T08:32:43;8.20;99.90
21559;DHT22;10940;48.890;8.240;2024-02-26T08:35:08;8.20;99.90
21559;DHT22;10940;48.890;8.240;2024-02-26T08:37:34;8.40;99.90
21559;DHT22;10940;48.890;8.240;2024-02-26T08:39:59;8.50;99.90
21559;DHT22;10940;48.890;8.240;2024-02-26T08:42:25;8.60;99.90
21559;DHT22;10940;48.890;8.240;2024-02-26T08:44:50;8.70;99.90
21559;DHT22;10940;48.890;8.240;2024-02-26T08:47:16;8.80;99.90
21559;DHT22;10940;48.890;8.240;2024-02-26T08:49:45;8.90;99.90
21559;DHT22;10940;48.890;8.240;2024-02-26T08:52:11;9.00;99.90
21559;DHT22;10940;48.890;8.240;2024-02-26T08:54:36;9.10;99.90
21559;DHT22;10940;48.890;8.240;2024-02-26T08:57:03;9.20;99.90
21559;DHT22;10940;48.890;8.240;2024-02-26T08:59:28;9.30;99.90
21559;DHT22;10940;48.890;8.240;2024-02-26T09:01:54;9.40;99.90
21559;DHT22;10940;48.890;8.240;2024-02-26T09:04:20;9.40;99.90
21559;DHT22;10940;48.890;8.240;2024-02-26T09:06:45;9.50;99.90
21559;DHT22;10940;48.890;8.240;2024-02-26T09:09:11;9.50;99.90
21559;DHT22;10940;48.890;8.240;2024-02-26T09:11:37;9.50;99.90
21559;DHT22;10940;48.890;8.240;2024-02-26T09:14:02;9.50;99.90
21559;DHT22;10940;48.890;8.240;2024-02-26T09:16:29;9.60;99.90
21559;DHT22;10940;48.890;8.240;2024-02-26T09:18:56;9.60;99.90
21559;DHT22;10940;48.890;8.240;2024-02-26T09:21:21;9.60;99.90
21559;DHT22;10940;48.890;8.240;2024-02-26T09:23:52;9.70;99.90
21559;DHT22;10940;48.890;8.240;2024-02-26T09:26:18;9.80;99.90
21559;DHT22;10940;48.890;8.240;2024-02-26T09:28:44;9.80;99.90
21559;DHT22;10940;48.890;8.240;2024-02-26T09:31:10;9.90;99.90
21559;DHT22;10940;48.890;8.240;2024-02-26T09:33:36;10.00;99.90
21559;DHT22;10940;48.890;8.240;2024-02-26T09:36:02;10.00;99.90
21559;DHT22;10940;48.890;8.240;2024-02-26T09:38:28;10.00;99.90
21559;DHT22;10940;48.890;8.240;2024-02-26T09:40:58;10.00;99.90
21559;DHT22;10940;48.890;8.240;2024-02-26T09:43:23;10.10;99.90
21559;DHT22;10940;48.890;8.240;2024-02-26T09:45:55;10.10;99.90
21559;DHT22;10940;48.890;8.240;2024-02-26T09:48:22;10.10;99.90
21559;DHT22;10940;48.890;8.240;2024-02-26T09:50:49;10.10;99.90
21559;DHT22;10940;48.890;8.240;2024-02-26T09:53:14;10.20;99.90
21559;DHT22;10940;48.890;8.240;2024-02-26T09:55:41;10.20;99.90
21559;DHT22;10940;48.890;8.240;2024-02-26T09:58:07;10.20;99.90
21559;DHT22;10940;48.890;8.240;2024-02-26T10:00:37;10.30;99.90
21559;DHT22;10940;48.890;8.240;2024-02-26T10:03:04;10.30;99.90
21559;DHT22;10940;48.890;8.240;2024-02-26T10:05:32;10.20;99.90
21559;DHT22;10940;48.890;8.240;2024-02-26T10:07:59;10.20;99.90
21559;DHT22;10940;48.890;8.240;2024-02-26T10:10:28;10.20;99.90
21559;DHT22;10940;48.890;8.240;2024-02-26T10:12:54;10.30;99.90
21559;DHT22;10940;48.890;8.240;2024-02-26T10:15:20;10.30;99.90
21559;DHT22;10940;48.890;8.240;2024-02-26T10:17:45;10.30;99.90
21559;DHT22;10940;48.890;8.240;2024-02-26T10:20:18;10.40;99.90
21559;DHT22;10940;48.890;8.240;2024-02-26T10:22:46;10.40;99.90
21559;DHT22;10940;48.890;8.240;2024-02-26T10:25:12;10.50;99.90
21559;DHT22;10940;48.890;8.240;2024-02-26T10:27:40;10.50;99.90
21559;DHT22;10940;48.890;8.240;2024-02-26T10:30:17;10.70;99.90
21559;DHT22;10940;48.890;8.240;2024-02-26T10:32:47;10.80;99.90
21559;DHT22;10940;48.890;8.240;2024-02-26T10:35:16;11.00;99.90
21559;DHT22;10940;48.890;8.240;2024-02-26T10:37:43;11.20;99.90
21559;DHT22;10940;48.890;8.240;2024-02-26T10:40:13;11.40;99.90
21559;DHT22;10940;48.890;8.240;2024-02-26T10:42:40;11.50;99.90
21559;DHT22;10940;48.890;8.240;2024-02-26T10:45:06;11.70;99.90
21559;DHT22;10940;48.890;8.240;2024-02-26T10:47:33;11.80;99.90
21559;DHT22;10940;48.890;8.240;2024-02-26T10:49:59;11.80;99.90
21559;DHT22;10940;48.890;8.240;2024-02-26T10:52:27;12.00;99.90
21559;DHT22;10940;48.890;8.240;2024-02-26T10:54:54;12.10;99.90
21559;DHT22;10940;48.890;8.240;2024-02-26T10:57:22;12.10;99.90
21559;DHT22;10940;48.890;8.240;2024-02-26T10:59:50;12.10;99.90
21559;DHT22;10940;48.890;8.240;2024-02-26T11:02:17;12.20;99.90
21559;DHT22;10940;48.890;8.240;2024-02-26T11:04:44;12.30;99.90
21559;DHT22;10940;48.890;8.240;2024-02-26T11:07:11;12.30;99.90
21559;DHT22;10940;48.890;8.240;2024-02-26T11:09:37;12.40;99.90
21559;DHT22;10940;48.890;8.240;2024-02-26T11:12:10;12.40;99.90
21559;DHT22;10940;48.890;8.240;2024-02-26T11:14:39;12.40;99.90
21559;DHT22;10940;48.890;8.240;2024-02-26T11:17:07;12.30;99.90
21559;DHT22;10940;48.890;8.240;2024-02-26T11:19:35;12.30;99.90
21559;DHT22;10940;48.890;8.240;2024-02-26T11:22:01;12.30;99.90
21559;DHT22;10940;48.890;8.240;2024-02-26T11:24:27;12.20;99.90
21559;DHT22;10940;48.890;8.240;2024-02-26T11:26:59;12.20;99.90
21559;DHT22;10940;48.890;8.240;2024-02-26T11:29:38;12.20;99.90
21559;DHT22;10940;48.890;8.240;2024-02-26T11:32:05;12.30;99.90
21559;DHT22;10940;48.890;8.240;2024-02-26T11:34:32;12.40;99.90
21559;DHT22;10940;48.890;8.240;2024-02-26T11:36:58;12.40;99.90
21559;DHT22;10940;48.890;8.240;2024-02-26T11:39:33;12.60;99.90
21559;DHT22;10940;48.890;8.240;2024-02-26T11:42:13;12.70;99.90
21559;DHT22;10940;48.890;8.240;2024-02-26T11:44:39;12.80;99.90
21559;DHT22;10940;48.890;8.240;2024-02-26T11:47:11;12.80;99.90
21559;DHT22;10940;48.890;8.240;2024-02-26T11:49:37;12.80;99.90
21559;DHT22;10940;48.890;8.240;2024-02-26T11:52:06;12.80;99.90
21559;DHT22;10940;48.890;8.240;2024-02-26T11:54:52;12.80;99.90
21559;DHT22;10940;48.890;8.240;2024-02-26T11:57:38;12.90;99.90
21559;DHT22;10940;48.890;8.240;2024-02-26T12:05:22;13.20;99.90
21559;DHT22;10940;48.890;8.240;2024-02-26T12:07:55;13.10;99.90
21559;DHT22;10940;48.890;8.240;2024-02-26T12:15:34;13.10;99.90
21559;DHT22;10940;48.890;8.240;2024-02-26T12:18:05;13.10;99.90
21559;DHT22;10940;48.890;8.240;2024-02-26T12:20:32;13.10;99.90
21559;DHT22;10940;48.890;8.240;2024-02-26T12:22:58;13.20;99.90
21559;DHT22;10940;48.890;8.240;2024-02-26T12:25:25;13.20;99.90
21559;DHT22;10940;48.890;8.240;2024-02-26T12:27:54;13.30;99.90
21559;DHT22;10940;48.890;8.240;2024-02-26T12:30:21;13.40;99.90
21559;DHT22;10940;48.890;8.240;2024-02-26T12:32:48;13.50;99.90
21559;DHT22;10940;48.890;8.240;2024-02-26T12:35:15;13.60;99.90
21559;DHT22;10940;48.890;8.240;2024-02-26T12:37:41;13.60;99.90
21559;DHT22;10940;48.890;8.240;2024-02-26T12:40:11;13.60;99.90
21559;DHT22;10940;48.890;8.240;2024-02-26T12:42:38;13.70;99.90
21559;DHT22;10940;48.890;8.240;2024-02-26T12:45:10;13.60;99.90
21559;DHT22;10940;48.890;8.240;2024-02-26T12:47:44;13.70;99.90
21559;DHT22;10940;48.890;8.240;2024-02-26T12:50:15;13.70;99.90
21559;DHT22;10940;48.890;8.240;2024-02-26T12:52:46;13.80;99.90
21559;DHT22;10940;48.890;8.240;2024-02-26T12:55:18;13.80;99.90
21559;DHT22;10940;48.890;8.240;2024-02-26T12:57:45;13.80;99.90
21559;DHT22;10940;48.890;8.240;2024-02-26T13:00:14;13.90;99.90
21559;DHT22;10940;48.890;8.240;2024-02-26T13:02:41;13.90;99.90
21559;DHT22;10940;48.890;8.240;2024-02-26T13:05:10;14.10;99.90
21559;DHT22;10940;48.890;8.240;2024-02-26T13:07:44;14.30;99.90
21559;DHT22;10940;48.890;8.240;2024-02-26T13:10:11;14.60;99.90
21559;DHT22;10940;48.890;8.240;2024-02-26T13:12:48;14.70;99.90
21559;DHT22;10940;48.890;8.240;2024-02-26T13:15:19;14.80;99.90
21559;DHT22;10940;48.890;8.240;2024-02-26T13:17:46;15.00;99.90
21559;DHT22;10940;48.890;8.240;2024-02-26T13:20:12;14.90;99.90
21559;DHT22;10940;48.890;8.240;2024-02-26T13:22:39;14.90;99.90
21559;DHT22;10940;48.890;8.240;2024-02-26T13:25:05;14.90;99.90
21559;DHT22;10940;48.890;8.240;2024-02-26T13:27:33;14.70;99.90
21559;DHT22;10940;48.890;8.240;2024-02-26T13:32:49;14.50;99.90
21559;DHT22;10940;48.890;8.240;2024-02-26T13:35:15;14.40;99.90
21559;DHT22;10940;48.890;8.240;2024-02-26T13:37:40;14.30;99.90
21559;DHT22;10940;48.890;8.240;2024-02-26T13:40:07;14.30;99.90
21559;DHT22;10940;48.890;8.240;2024-02-26T13:42:34;14.30;99.90
21559;DHT22;10940;48.890;8.240;2024-02-26T13:44:59;14.50;99.90
21559;DHT22;10940;48.890;8.240;2024-02-26T13:47:25;14.70;99.90
21559;DHT22;10940;48.890;8.240;2024-02-26T13:49:50;14.80;99.90
21559;DHT22;10940;48.890;8.240;2024-02-26T13:52:16;14.80;99.90
21559;DHT22;10940;48.890;8.240;2024-02-26T13:54:41;14.60;99.90
21559;DHT22;10940;48.890;8.240;2024-02-26T13:57:07;14.50;99.90
21559;DHT22;10940;48.890;8.240;2024-02-26T13:59:34;14.30;99.90
21559;DHT22;10940;48.890;8.240;2024-02-26T14:01:59;14.10;99.90
21559;DHT22;10940;48.890;8.240;2024-02-26T14:04:25;14.00;99.90
21559;DHT22;10940;48.890;8.240;2024-02-26T14:06:51;14.10;99.90
21559;DHT22;10940;48.890;8.240;2024-02-26T14:09:17;14.30;99.90
21559;DHT22;10940;48.890;8.240;2024-02-26T14:11:45;14.40;99.90
21559;DHT22;10940;48.890;8.240;2024-02-26T14:14:11;14.50;99.90
21559;DHT22;10940;48.890;8.240;2024-02-26T14:16:36;14.80;99.90
21559;DHT22;10940;48.890;8.240;2024-02-26T14:19:02;14.90;99.90
21559;DHT22;10940;48.890;8.240;2024-02-26T14:21:28;15.00;99.90
21559;DHT22;10940;48.890;8.240;2024-02-26T14:23:55;15.20;99.90
21559;DHT22;10940;48.890;8.240;2024-02-26T14:26:22;15.20;99.90
21559;DHT22;10940;48.890;8.240;2024-02-26T14:28:48;15.20;99.90
21559;DHT22;10940;48.890;8.240;2024-02-26T14:31:16;15.30;99.90
21559;DHT22;10940;48.890;8.240;2024-02-26T14:33:42;15.20;99.90
21559;DHT22;10940;48.890;8.240;2024-02-26T14:36:08;15.20;99.90
21559;DHT22;10940;48.890;8.240;2024-02-26T14:38:33;15.10;99.90
21559;DHT22;10940;48.890;8.240;2024-02-26T14:40:59;15.00;99.90
21559;DHT22;10940;48.890;8.240;2024-02-26T14:43:24;14.80;99.90
21559;DHT22;10940;48.890;8.240;2024-02-26T14:45:50;14.70;99.90
21559;DHT22;10940;48.890;8.240;2024-02-26T14:48:15;14.60;99.90
21559;DHT22;10940;48.890;8.240;2024-02-26T14:50:41;14.60;99.90
21559;DHT22;10940;48.890;8.240;2024-02-26T14:53:06;14.60;99.90
21559;DHT22;10940;48.890;8.240;2024-02-26T14:55:32;14.60;99.90
21559;DHT22;10940;48.890;8.240;2024-02-26T14:57:58;14.50;99.90
21559;DHT22;10940;48.890;8.240;2024-02-26T15:00:23;14.50;99.90
21559;DHT22;10940;48.890;8.240;2024-02-26T15:02:49;14.40;99.90
21559;DHT22;10940;48.890;8.240;2024-02-26T15:05:14;14.30;99.90
21559;DHT22;10940;48.890;8.240;2024-02-26T15:07:42;14.10;99.90
21559;DHT22;10940;48.890;8.240;2024-02-26T15:10:08;14.00;99.90
21559;DHT22;10940;48.890;8.240;2024-02-26T15:12:33;14.00;99.90
21559;DHT22;10940;48.890;8.240;2024-02-26T15:14:59;13.90;99.90
21559;DHT22;10940;48.890;8.240;2024-02-26T15:17:27;13.90;99.90
21559;DHT22;10940;48.890;8.240;2024-02-26T15:19:53;13.80;99.90
21559;DHT22;10940;48.890;8.240;2024-02-26T15:22:19;13.80;99.90
21559;DHT22;10940;48.890;8.240;2024-02-26T15:24:44;13.70;99.90
21559;DHT22;10940;48.890;8.240;2024-02-26T15:27:12;13.70;99.90
21559;DHT22;10940;48.890;8.240;2024-02-26T15:29:38;13.70;99.90
21559;DHT22;10940;48.890;8.240;2024-02-26T15:32:05;13.70;99.90
21559;DHT22;10940;48.890;8.240;2024-02-26T15:34:30;13.70;99.90
21559;DHT22;10940;48.890;8.240;2024-02-26T15:36:56;13.70;99.90
21559;DHT22;10940;48.890;8.240;2024-02-26T15:39:21;13.70;99.90
21559;DHT22;10940;48.890;8.240;2024-02-26T15:41:47;13.50;99.90
21559;DHT22;10940;48.890;8.240;2024-02-26T15:44:13;13.60;99.90
21559;DHT22;10940;48.890;8.240;2024-02-26T15:46:39;13.60;99.90
21559;DHT22;10940;48.890;8.240;2024-02-26T15:49:06;13.50;99.90